Morris, IL

9:58 AM CST on February 24, 2017 (GMT -0600)
Morris

Weather History for KC09 - November, 2012

Change the Weather History Date:

Friday, November 23, 2012

  Actual Average (KARR) Record (KARR)
Temperature  
Mean Temperature 32 °F -  
Max Temperature 40 °F 43 °F 63 °F (2003)
Min Temperature 25 °F 27 °F 13 °F (2013)
Degree Days  
Heating Degree Days 32    
Moisture  
Dew Point 23 °F    
Average Humidity 71    
Maximum Humidity 87    
Minimum Humidity 61    
Precipitation  
Precipitation 0.01 in - - ()
Sea Level Pressure  
Sea Level Pressure 30.10 in    
Wind  
Wind Speed 19 mph (WNW)    
Max Wind Speed 33 mph    
Max Gust Speed 44 mph    
Visibility 10 miles    
Events      
Averages and records for this station are not official NWS values.
T = Trace of Precipitation, MM = Missing Value Source: NWS Daily Summary

Daily Weather History Graph

Daily Weather History Graph

Search for Another Location

Airport or City:

Trip Planner

Search our weather history database for the weather conditions in past years. The results will help you decide how hot, cold, wet, or windy it might be!

Date:

Astronomy

Nov. 23, 2012 Rise Set
Actual Time 6:52 AM CST 4:27 PM CST
Civil Twilight 6:21 AM CST 4:58 PM CST
Nautical Twilight 5:47 AM CST 5:32 PM CST
Astronomical Twilight 5:14 AM CST 6:05 PM CST
Moon 1:45 PM CST (11/23) 2:08 AM CST (11/23)
Length of Visible Light 10h 36m
Length of Day
9h 35m
Waxing Gibbous, 80% of the Moon is Illuminated
Nov 23
Waxing Gibbous
Nov 28
Full
Dec 6
Last Quarter
Dec 13
New
Dec 19
First Quarter

Hourly Weather History & Observations

Time (CST) Temp. Windchill Dew Point Humidity Pressure Visibility Wind Dir Wind Speed Gust Speed Precip Events Conditions
12:15 AM 40.5 °F 30.9 °F 35.4 °F 82% 29.94 in 10.0 mi West 20.7 mph 25.3 mph N/A   Clear
12:35 AM 40.1 °F 30.7 °F 34.7 °F 81% 29.95 in 10.0 mi West 19.6 mph 24.2 mph N/A   Mostly Cloudy
12:55 AM 39.2 °F 29.6 °F 33.1 °F 79% 29.95 in 10.0 mi West 19.6 mph 33.4 mph N/A   Mostly Cloudy
1:15 AM 37.9 °F 28.5 °F 32.9 °F 82% 29.95 in 10.0 mi West 17.3 mph - N/A   Clear
1:35 AM 37.8 °F 29.0 °F 33.1 °F 83% 29.95 in 10.0 mi West 15.0 mph - N/A   Clear
1:55 AM 37.8 °F 29.8 °F 32.5 °F 81% 29.96 in 10.0 mi West 12.7 mph - 0.01 in   Clear
2:15 AM 37.4 °F 28.5 °F 32.0 °F 81% 29.95 in 10.0 mi West 15.0 mph - N/A   Clear
2:35 AM 37.2 °F 29.1 °F 32.0 °F 81% 29.95 in 10.0 mi West 12.7 mph 19.6 mph N/A   Clear
2:55 AM 35.6 °F 26.6 °F 32.0 °F 87% 29.95 in 10.0 mi West 13.8 mph - N/A   Clear
3:15 AM 35.6 °F 27.1 °F 32.0 °F 87% 29.95 in 10.0 mi West 12.7 mph - N/A   Clear
3:35 AM 36.5 °F 27.4 °F 32.0 °F 84% 29.94 in 10.0 mi West 15.0 mph - N/A   Clear
3:55 AM 36.9 °F 27.5 °F 32.0 °F 83% 29.93 in 10.0 mi West 16.1 mph - N/A   Clear
4:15 AM 37.8 °F 28.0 °F 31.8 °F 79% 29.94 in 10.0 mi West 18.4 mph 29.9 mph N/A   Clear
4:35 AM 37.4 °F 26.6 °F 31.5 °F 79% 29.94 in 10.0 mi West 21.9 mph 25.3 mph N/A   Scattered Clouds
4:55 AM 38.1 °F 27.6 °F 30.9 °F 75% 29.94 in 10.0 mi West 21.9 mph 32.2 mph N/A   Mostly Cloudy
5:15 AM 37.4 °F 26.4 °F 30.2 °F 75% 29.95 in 10.0 mi West 23.0 mph 32.2 mph N/A   Overcast
5:35 AM 36.5 °F 26.3 °F 29.8 °F 77% 29.96 in 10.0 mi West 18.4 mph 24.2 mph N/A   Overcast
5:55 AM 35.8 °F 26.1 °F 28.9 °F 76% 29.96 in 10.0 mi West 16.1 mph 28.8 mph N/A   Overcast
6:15 AM 35.4 °F 24.9 °F 28.0 °F 75% 29.97 in 10.0 mi West 18.4 mph 26.5 mph N/A   Overcast
6:35 AM 34.9 °F 23.0 °F 27.7 °F 75% 29.97 in 10.0 mi West 23.0 mph 29.9 mph N/A   Overcast
6:55 AM 34.7 °F 23.1 °F 27.5 °F 75% 29.98 in 10.0 mi West 21.9 mph 33.4 mph N/A   Overcast
7:15 AM 34.7 °F 22.0 °F 27.5 °F 75% 29.99 in 10.0 mi West 26.5 mph 39.1 mph N/A   Overcast
7:35 AM 33.8 °F 19.6 °F 24.4 °F 69% 30.00 in 10.0 mi WNW 32.2 mph 43.7 mph N/A   Overcast
7:55 AM 33.3 °F 20.1 °F 24.6 °F 71% 30.01 in 10.0 mi WNW 26.5 mph 34.5 mph N/A   Overcast
8:15 AM 32.9 °F 20.4 °F 25.7 °F 75% 30.02 in 10.0 mi WNW 23.0 mph 32.2 mph N/A   Overcast
8:35 AM 32.0 °F 17.2 °F 22.5 °F 68% 30.04 in 10.0 mi WNW 32.2 mph 42.6 mph N/A   Overcast
8:55 AM 32.0 °F 17.4 °F 22.3 °F 67% 30.04 in 10.0 mi WNW 31.1 mph 39.1 mph N/A   Overcast
9:15 AM 31.8 °F 16.7 °F 21.9 °F 67% 30.05 in 10.0 mi WNW 33.4 mph 40.3 mph N/A   Overcast
9:35 AM 31.8 °F 17.9 °F 21.6 °F 66% 30.07 in 10.0 mi WNW 27.6 mph 39.1 mph N/A   Overcast
9:55 AM 32.0 °F 17.6 °F 21.4 °F 65% 30.07 in 10.0 mi WNW 29.9 mph 36.8 mph N/A   Overcast
10:15 AM 32.0 °F 17.9 °F 20.8 °F 63% 30.08 in 10.0 mi WNW 28.8 mph 38.0 mph N/A   Overcast
10:35 AM 32.0 °F 17.6 °F 20.3 °F 62% 30.09 in 10.0 mi WNW 29.9 mph 39.1 mph N/A   Overcast
10:55 AM 32.0 °F 18.6 °F 20.5 °F 63% 30.10 in 10.0 mi WNW 25.3 mph 35.7 mph N/A   Overcast
11:15 AM 31.8 °F 18.7 °F 21.2 °F 65% 30.10 in 10.0 mi WNW 24.2 mph 34.5 mph N/A   Overcast
11:35 AM 31.5 °F 18.5 °F 20.8 °F 65% 30.10 in 10.0 mi WNW 23.0 mph 32.2 mph N/A   Overcast
11:55 AM 31.6 °F 17.6 °F 20.7 °F 64% 30.11 in 10.0 mi WNW 27.6 mph 34.5 mph N/A   Overcast
12:15 PM 32.0 °F 18.9 °F 19.9 °F 61% 30.11 in 10.0 mi NW 24.2 mph 34.5 mph N/A   Overcast
12:35 PM 31.5 °F 17.9 °F 20.1 °F 63% 30.12 in 10.0 mi WNW 25.3 mph 32.2 mph N/A   Overcast
12:55 PM 32.0 °F 20.1 °F 19.9 °F 61% 30.12 in 10.0 mi NW 19.6 mph 29.9 mph N/A   Overcast
1:15 PM 32.0 °F 19.2 °F 19.9 °F 61% 30.12 in 10.0 mi WNW 23.0 mph 34.5 mph N/A   Overcast
1:35 PM 32.0 °F 18.9 °F 20.3 °F 62% 30.13 in 10.0 mi WNW 24.2 mph - N/A   Overcast
1:55 PM 32.0 °F 19.5 °F 20.3 °F 62% 30.13 in 10.0 mi WNW 21.9 mph 29.9 mph N/A   Overcast
2:15 PM 32.0 °F 19.2 °F 19.9 °F 61% 30.14 in 10.0 mi WNW 23.0 mph 28.8 mph N/A   Overcast
2:35 PM 31.8 °F 18.1 °F 19.8 °F 61% 30.15 in 10.0 mi WNW 26.5 mph 29.9 mph N/A   Overcast
2:55 PM 31.1 °F 18.0 °F 19.4 °F 62% 30.16 in 10.0 mi WNW 23.0 mph 33.4 mph N/A   Overcast
3:15 PM 31.1 °F 18.3 °F 19.4 °F 62% 30.17 in 10.0 mi WNW 21.9 mph 32.2 mph N/A   Overcast
3:35 PM 30.6 °F 18.2 °F 18.9 °F 62% 30.18 in 10.0 mi WNW 19.6 mph 29.9 mph N/A   Overcast
3:55 PM 30.4 °F 18.0 °F 18.7 °F 62% 30.19 in 10.0 mi NW 19.6 mph 26.5 mph N/A   Overcast
4:15 PM 29.3 °F 19.6 °F 19.0 °F 66% 30.20 in 10.0 mi NW 11.5 mph - N/A   Mostly Cloudy
4:35 PM 28.9 °F 17.7 °F 18.5 °F 65% 30.20 in 10.0 mi NW 15.0 mph 20.7 mph N/A   Scattered Clouds
4:55 PM 28.4 °F 18.5 °F 18.7 °F 67% 30.21 in 10.0 mi NW 11.5 mph 17.3 mph N/A   Clear
5:15 PM 28.2 °F 18.9 °F 18.3 °F 66% 30.21 in 10.0 mi NW 10.4 mph - N/A   Clear
5:35 PM 27.5 °F 18.0 °F 18.5 °F 69% 30.22 in 10.0 mi NW 10.4 mph 16.1 mph N/A   Clear
5:55 PM 26.4 °F 17.3 °F 19.0 °F 74% 30.22 in 10.0 mi NW 9.2 mph - N/A   Clear
6:15 PM 26.1 °F 16.8 °F 19.0 °F 75% 30.23 in 10.0 mi WNW 9.2 mph - N/A   Clear
6:35 PM 25.7 °F 15.7 °F 19.2 °F 76% 30.23 in 10.0 mi WNW 10.4 mph - N/A   Scattered Clouds
6:55 PM 26.6 °F 15.7 °F 19.4 °F 74% 30.23 in 10.0 mi WNW 12.7 mph - N/A   Scattered Clouds
7:15 PM 27.5 °F 16.3 °F 19.4 °F 72% 30.23 in 10.0 mi WNW 13.8 mph - N/A   Mostly Cloudy
7:35 PM 27.9 °F 15.9 °F 19.8 °F 72% 30.23 in 10.0 mi WNW 16.1 mph 19.6 mph N/A   Overcast
7:55 PM 28.2 °F 17.7 °F 19.8 °F 71% 30.23 in 10.0 mi NW 12.7 mph - N/A   Overcast
8:15 PM 28.8 °F 18.4 °F 18.7 °F 66% 30.23 in 10.0 mi NW 12.7 mph 21.9 mph N/A   Overcast
8:35 PM 28.8 °F 17.9 °F 18.9 °F 67% 30.23 in 10.0 mi NW 13.8 mph 18.4 mph N/A   Overcast
8:55 PM 28.4 °F 20.4 °F 18.9 °F 67% 30.23 in 10.0 mi NW 8.1 mph - N/A   Overcast
9:15 PM 28.4 °F 20.4 °F 19.2 °F 69% 30.23 in 10.0 mi NW 8.1 mph - N/A   Overcast
9:35 PM 28.8 °F 20.9 °F 18.9 °F 67% 30.22 in 10.0 mi NW 8.1 mph 17.3 mph N/A   Overcast
9:55 PM 28.6 °F 19.9 °F 19.4 °F 69% 30.22 in 10.0 mi NW 9.2 mph - N/A   Overcast
10:15 PM 28.8 °F 21.7 °F 19.4 °F 68% 30.22 in 10.0 mi NW 6.9 mph - N/A   Overcast
10:35 PM 28.9 °F 20.4 °F 19.6 °F 68% 30.22 in 10.0 mi NW 9.2 mph - N/A   Overcast
10:55 PM 28.8 °F 20.2 °F 19.0 °F 67% 30.22 in 10.0 mi NW 9.2 mph - N/A   Overcast
11:15 PM 28.4 °F 20.4 °F 19.6 °F 70% 30.22 in 10.0 mi NW 8.1 mph - N/A   Overcast
11:35 PM 28.8 °F 21.7 °F 19.4 °F 68% 30.22 in 10.0 mi NW 6.9 mph - N/A   Overcast
11:55 PM 28.9 °F 20.4 °F 19.4 °F 68% 30.22 in 10.0 mi NW 9.2 mph - N/A   Overcast